createdAt,value
2022-11-14T00:00:28.704Z,100137.13
2022-11-14T00:03:15.457Z,100142.16
2022-11-14T00:06:05.977Z,100138.69
2022-11-14T00:08:52.480Z,100138.56
2022-11-14T00:11:38.843Z,100133.72
2022-11-14T00:14:25.365Z,100129.94
2022-11-14T00:17:12.228Z,100130.38
2022-11-14T00:19:58.766Z,100123.50
2022-11-14T00:22:46.823Z,100125.75
2022-11-14T00:25:33.584Z,100122.66
2022-11-14T00:28:20.195Z,100129.03
2022-11-14T00:31:15.708Z,100123.59
2022-11-14T00:34:02.378Z,100128.19
2022-11-14T00:36:48.940Z,100136.66
2022-11-14T00:39:37.023Z,100132.22
2022-11-14T00:42:23.434Z,100137.03
2022-11-14T00:45:10.874Z,100127.63
2022-11-14T00:47:57.465Z,100132.41
2022-11-14T00:50:44.072Z,100124.06
2022-11-14T00:53:30.369Z,100129.16
2022-11-14T00:56:18.023Z,100118.94
2022-11-14T00:59:04.828Z,100118.72
2022-11-14T01:01:55.358Z,100124.50
2022-11-14T01:04:44.184Z,100121.94
2022-11-14T01:07:31.055Z,100117.63
2022-11-14T01:10:18.212Z,100120.19
2022-11-14T01:13:05.886Z,100113.53
2022-11-14T01:15:52.408Z,100112.38
2022-11-14T01:18:39.858Z,100114.13
2022-11-14T01:21:27.010Z,100102.38
2022-11-14T01:24:13.202Z,100101.91
2022-11-14T01:26:59.620Z,100102.88
2022-11-14T01:29:47.524Z,100094.66
2022-11-14T01:32:33.960Z,100086.97
2022-11-14T01:35:20.472Z,100083.53
2022-11-14T01:38:07.123Z,100080.56
2022-11-14T01:40:53.121Z,100070.31
2022-11-14T01:43:40.362Z,100077.91
2022-11-14T01:46:30.972Z,100065.25
2022-11-14T01:49:20.450Z,100070.81
2022-11-14T01:52:07.603Z,100063.13
2022-11-14T01:54:55.968Z,100069.28
2022-11-14T01:57:45.688Z,100059.63
2022-11-14T02:00:32.503Z,100060.97
2022-11-14T02:03:20.971Z,100053.50
2022-11-14T02:06:08.735Z,100052.38
2022-11-14T02:08:56.434Z,100045.41
2022-11-14T02:11:46.140Z,100050.50
2022-11-14T02:14:33.924Z,100044.69
2022-11-14T02:17:29.997Z,100039.72
2022-11-14T02:20:25.379Z,100030.72
2022-11-14T02:23:12.591Z,100026.19
2022-11-14T02:25:59.482Z,100029.84
2022-11-14T02:28:46.508Z,100022.78
2022-11-14T02:31:32.968Z,100029.00
2022-11-14T02:34:34.747Z,100028.06
2022-11-14T02:37:22.730Z,100025.97
2022-11-14T02:40:09.596Z,100017.72
2022-11-14T02:42:56.606Z,100016.69
2022-11-14T02:45:43.076Z,100015.22
2022-11-14T02:48:29.935Z,99996.00
2022-11-14T02:51:16.524Z,99988.03
2022-11-14T02:54:04.456Z,99985.06
2022-11-14T02:56:50.913Z,99979.06
2022-11-14T02:59:37.412Z,99973.75
2022-11-14T03:02:23.484Z,99971.22
2022-11-14T03:05:10.061Z,99983.59
2022-11-14T03:07:57.235Z,99971.44
2022-11-14T03:10:46.188Z,99966.22
2022-11-14T03:13:32.483Z,99960.78
2022-11-14T03:16:18.872Z,99958.56
2022-11-14T03:19:05.307Z,99956.28
2022-11-14T03:21:51.460Z,99958.84
2022-11-14T03:24:38.752Z,99953.44
2022-11-14T03:27:26.564Z,99957.19
2022-11-14T03:30:13.762Z,99967.28
2022-11-14T03:33:00.136Z,99964.06
2022-11-14T03:35:46.430Z,99956.44
2022-11-14T03:38:33.264Z,99959.38
2022-11-14T03:41:19.489Z,99961.28
2022-11-14T03:44:07.316Z,99967.09
2022-11-14T03:46:53.608Z,99964.53
2022-11-14T03:49:40.501Z,99974.69
2022-11-14T03:52:27.042Z,99977.38
2022-11-14T03:55:13.981Z,99975.91
2022-11-14T04:24:18.242Z,99934.00
2022-11-14T06:10:31.091Z,99915.88
2022-11-14T06:13:20.066Z,99914.53
2022-11-14T06:16:22.992Z,99920.69
2022-11-14T06:19:09.831Z,99909.06
2022-11-14T06:21:59.015Z,99897.25
2022-11-14T06:25:00.041Z,99902.06
2022-11-14T06:27:50.253Z,99913.53
2022-11-14T06:30:38.582Z,99911.34
2022-11-14T06:36:42.354Z,99922.13
2022-11-14T06:39:29.679Z,99929.97
2022-11-14T06:42:22.914Z,99920.72
2022-11-14T06:45:13.482Z,99915.31
2022-11-14T06:48:00.345Z,99924.63
2022-11-14T06:50:58.721Z,99914.97
2022-11-14T06:53:50.354Z,99912.13
2022-11-14T06:56:39.169Z,99923.88
2022-11-14T06:59:26.651Z,99914.25
2022-11-14T07:02:21.557Z,99920.97
2022-11-14T07:05:09.342Z,99914.66
2022-11-14T07:08:01.218Z,99925.03
2022-11-14T07:10:51.385Z,99919.88
2022-11-14T07:13:43.509Z,99924.63
2022-11-14T07:16:32.519Z,99926.66
2022-11-14T07:19:23.671Z,99910.88
2022-11-14T07:22:19.766Z,99925.13
2022-11-14T07:25:28.512Z,99932.53
2022-11-14T07:28:19.290Z,99938.28
2022-11-14T07:31:09.150Z,99937.03
2022-11-14T07:33:58.632Z,99933.38
2022-11-14T07:36:54.397Z,99929.78
2022-11-14T07:39:41.751Z,99915.38
2022-11-14T07:42:30.867Z,99922.38
2022-11-14T07:45:21.124Z,99927.94
2022-11-14T07:48:25.865Z,99934.38
2022-11-14T07:51:17.296Z,99944.44
2022-11-14T07:54:08.088Z,99936.84
2022-11-14T07:56:54.922Z,99929.88
2022-11-14T07:59:50.730Z,99914.66
2022-11-14T08:02:39.327Z,99918.72
2022-11-14T08:05:27.945Z,99929.47
2022-11-14T08:08:15.054Z,99931.81
2022-11-14T08:11:02.173Z,99931.03
2022-11-14T08:13:49.508Z,99917.97
2022-11-14T08:16:38.370Z,99921.88
2022-11-14T08:19:30.092Z,99929.84
2022-11-14T08:22:16.746Z,99939.72
2022-11-14T08:25:05.043Z,99937.34
2022-11-14T08:27:51.719Z,99931.66
2022-11-14T08:30:40.426Z,99930.59
2022-11-14T08:33:27.509Z,99930.34
2022-11-14T08:39:19.452Z,99926.84
2022-11-14T08:42:07.051Z,99934.34
2022-11-14T08:44:53.833Z,99942.06
2022-11-14T08:47:42.422Z,99949.59
2022-11-14T08:50:29.681Z,99951.03
2022-11-14T08:53:18.131Z,99957.34
2022-11-14T08:56:06.172Z,99958.63
2022-11-14T08:58:53.474Z,99961.69
2022-11-14T09:01:41.403Z,99947.81
2022-11-14T09:04:29.720Z,99944.41
2022-11-14T09:07:15.908Z,99950.16
2022-11-14T09:10:17.801Z,99941.53
2022-11-14T09:16:19.128Z,99949.56
2022-11-14T09:19:05.711Z,99952.47
2022-11-14T09:21:52.571Z,99954.38
2022-11-14T09:24:41.876Z,99952.03
2022-11-14T09:27:39.910Z,99940.91
2022-11-14T09:30:26.970Z,99933.53
2022-11-14T09:33:14.678Z,99930.88
2022-11-14T09:36:10.373Z,99923.31
2022-11-14T09:38:56.861Z,99933.66
2022-11-14T09:41:49.844Z,99925.47
2022-11-14T09:44:59.819Z,99934.97
2022-11-14T09:47:50.907Z,99930.53
2022-11-14T09:50:42.260Z,99924.03
2022-11-14T09:53:33.054Z,99931.72
2022-11-14T09:56:24.938Z,99934.44
2022-11-14T09:59:13.065Z,99924.47
2022-11-14T10:02:13.583Z,99923.25
2022-11-14T10:05:10.590Z,99922.41
2022-11-14T10:08:12.307Z,99923.13
2022-11-14T10:11:05.763Z,99921.22
2022-11-14T10:14:01.299Z,99918.97
2022-11-14T10:17:10.209Z,99920.94
2022-11-14T10:20:05.876Z,99909.16
2022-11-14T10:23:11.202Z,99900.88
2022-11-14T10:26:05.064Z,99899.81
2022-11-14T10:29:02.305Z,99887.63
2022-11-14T10:31:55.224Z,99886.59
2022-11-14T10:34:46.674Z,99890.25
2022-11-14T10:37:38.638Z,99890.38
2022-11-14T10:40:40.498Z,99891.66
2022-11-14T10:43:29.973Z,99883.75
2022-11-14T10:49:20.454Z,99884.44
2022-11-14T10:52:07.959Z,99868.84
2022-11-14T10:55:00.177Z,99873.53
2022-11-14T10:57:46.957Z,99861.25
2022-11-14T11:00:33.012Z,99860.19
2022-11-14T11:03:20.222Z,99848.22
2022-11-14T11:06:07.517Z,99848.31
2022-11-14T11:09:12.469Z,99845.31
2022-11-14T11:11:59.303Z,99846.41
2022-11-14T11:14:46.407Z,99856.22
2022-11-14T11:17:37.353Z,99851.53
2022-11-14T11:20:33.928Z,99852.91
2022-11-14T11:23:23.810Z,99842.66
2022-11-14T11:26:17.381Z,99836.91
2022-11-14T11:29:08.907Z,99828.81
2022-11-14T11:31:55.684Z,99820.84
2022-11-14T11:34:41.937Z,99818.59
2022-11-14T11:37:30.123Z,99806.91
2022-11-14T11:40:20.443Z,99811.13
2022-11-14T11:43:37.918Z,99809.44
2022-11-14T11:46:18.142Z,99808.91
2022-11-14T11:49:08.491Z,99811.19
2022-11-14T11:51:56.466Z,99800.81
2022-11-14T11:54:50.245Z,99803.94
2022-11-14T11:57:40.231Z,99805.28
2022-11-14T12:00:26.478Z,99810.09
2022-11-14T12:03:14.299Z,99808.97
2022-11-14T12:06:12.458Z,99806.38
2022-11-14T12:09:04.624Z,99803.47
2022-11-14T12:11:55.485Z,99806.91
2022-11-14T12:14:56.459Z,99807.28
2022-11-14T12:18:06.279Z,99810.00
2022-11-14T12:21:07.694Z,99802.38
2022-11-14T12:24:04.786Z,99803.06
2022-11-14T12:27:06.175Z,99807.38
2022-11-14T12:30:01.518Z,99803.00
2022-11-14T12:32:50.230Z,99798.72
2022-11-14T12:35:37.507Z,99801.53
2022-11-14T12:38:23.846Z,99803.72
2022-11-14T12:41:10.330Z,99796.50
2022-11-14T12:44:11.548Z,99793.53
2022-11-14T12:47:15.020Z,99789.00
2022-11-14T12:50:02.429Z,99787.88
2022-11-14T12:52:49.850Z,99783.06
2022-11-14T12:55:56.644Z,99778.28
2022-11-14T12:58:59.782Z,99779.47
2022-11-14T13:01:49.467Z,99778.38
2022-11-14T13:04:41.778Z,99784.06
2022-11-14T13:07:34.895Z,99777.50
2022-11-14T13:10:27.864Z,99770.97
2022-11-14T13:13:33.801Z,99759.72
2022-11-14T13:16:42.751Z,99757.94
2022-11-14T13:22:47.729Z,99756.97
2022-11-14T13:25:33.837Z,99763.94
2022-11-14T13:28:45.276Z,99761.19
2022-11-14T13:31:44.245Z,99751.34
2022-11-14T13:34:34.396Z,99746.84
2022-11-14T13:37:32.254Z,99751.03
2022-11-14T13:40:22.602Z,99741.22
2022-11-14T13:43:16.214Z,99736.56
2022-11-14T13:46:08.674Z,99743.16
2022-11-14T13:49:00.676Z,99743.88
2022-11-14T13:51:47.768Z,99743.78
2022-11-14T13:54:34.140Z,99744.50
2022-11-14T13:57:28.804Z,99741.13
2022-11-14T14:00:20.467Z,99738.31
2022-11-14T14:03:23.605Z,99735.38
2022-11-14T14:06:25.621Z,99727.22
2022-11-14T14:09:16.509Z,99732.91
2022-11-14T14:12:09.704Z,99729.50
2022-11-14T14:15:14.162Z,99733.38
2022-11-14T14:18:07.185Z,99729.38
2022-11-14T14:20:57.887Z,99728.53
2022-11-14T14:23:47.705Z,99740.09
2022-11-14T14:26:37.722Z,99736.84
2022-11-14T14:29:26.018Z,99730.66
2022-11-14T14:32:13.268Z,99727.56
2022-11-14T14:35:00.972Z,99734.59
2022-11-14T14:37:51.765Z,99724.19
2022-11-14T14:40:43.477Z,99720.69
2022-11-14T14:43:33.586Z,99720.22
2022-11-14T14:46:28.514Z,99718.81
2022-11-14T14:49:20.070Z,99730.47
2022-11-14T14:52:23.930Z,99729.09
2022-11-14T14:55:22.281Z,99730.34
2022-11-14T14:58:19.530Z,99716.38
2022-11-14T15:01:12.442Z,99722.16
2022-11-14T15:04:02.317Z,99715.03
2022-11-14T15:06:49.647Z,99713.00
2022-11-14T15:09:37.576Z,99712.34
2022-11-14T15:12:25.283Z,99714.72
2022-11-14T15:15:22.426Z,99716.94
2022-11-14T15:18:10.141Z,99722.53
2022-11-14T15:21:10.627Z,99717.13
2022-11-14T15:24:01.439Z,99718.84
2022-11-14T15:26:50.960Z,99721.69
2022-11-14T15:29:37.031Z,99715.94
2022-11-14T15:32:25.341Z,99707.69
2022-11-14T15:35:25.711Z,99704.06
2022-11-14T15:41:29.922Z,99703.09
2022-11-14T15:44:31.470Z,99704.41
2022-11-14T15:47:23.220Z,99702.16
2022-11-14T15:50:24.978Z,99701.78
2022-11-14T15:53:18.632Z,99706.78
2022-11-14T15:56:05.260Z,99707.22
2022-11-14T15:58:52.065Z,99709.47
2022-11-14T16:01:40.527Z,99715.63
2022-11-14T16:04:30.305Z,99723.19
2022-11-14T16:07:17.653Z,99721.50
2022-11-14T16:10:04.343Z,99712.34
2022-11-14T16:12:52.835Z,99711.03
2022-11-14T16:15:39.436Z,99715.16
2022-11-14T16:18:28.200Z,99710.69
2022-11-14T16:21:17.557Z,99705.31
2022-11-14T16:24:04.519Z,99701.81
2022-11-14T16:26:51.372Z,99716.69
2022-11-14T16:29:38.225Z,99703.97
2022-11-14T16:32:27.405Z,99707.38
2022-11-14T16:35:16.243Z,99712.19
2022-11-14T16:38:03.905Z,99710.31
2022-11-14T16:40:52.752Z,99713.44
2022-11-14T16:43:38.790Z,99713.06
2022-11-14T16:46:25.285Z,99717.03
2022-11-14T16:49:14.190Z,99722.47
2022-11-14T16:52:07.099Z,99722.56
2022-11-14T16:54:53.134Z,99725.16
2022-11-14T16:57:39.941Z,99732.97
2022-11-14T17:00:26.041Z,99733.34
2022-11-14T17:03:12.374Z,99731.59
2022-11-14T17:05:58.910Z,99730.19
2022-11-14T17:08:47.331Z,99728.03
2022-11-14T17:11:34.393Z,99726.88
2022-11-14T17:14:23.836Z,99731.16
2022-11-14T17:17:11.151Z,99736.03
2022-11-14T17:19:57.495Z,99734.19
2022-11-14T17:22:43.871Z,99732.28
2022-11-14T17:25:32.963Z,99738.78
2022-11-14T17:28:19.431Z,99736.31
2022-11-14T17:31:08.298Z,99734.41
2022-11-14T17:33:55.704Z,99745.66
2022-11-14T17:36:43.339Z,99732.19
2022-11-14T17:39:30.547Z,99734.34
2022-11-14T17:42:18.818Z,99735.50
2022-11-14T17:45:05.764Z,99738.34
2022-11-14T17:47:52.497Z,99736.94
2022-11-14T17:50:40.089Z,99742.50
2022-11-14T17:53:27.167Z,99742.13
2022-11-14T17:56:19.386Z,99736.94
2022-11-14T17:59:07.129Z,99750.56
2022-11-14T18:01:55.979Z,99748.06
2022-11-14T18:04:42.774Z,99749.72
2022-11-14T18:07:30.870Z,99739.66
2022-11-14T18:10:17.967Z,99747.69
2022-11-14T18:13:05.319Z,99748.53
2022-11-14T18:15:53.147Z,99749.00
2022-11-14T18:18:40.016Z,99753.50
2022-11-14T18:21:26.623Z,99758.25
2022-11-14T18:24:13.825Z,99763.47
2022-11-14T18:27:00.212Z,99750.22
2022-11-14T18:29:46.495Z,99758.00
2022-11-14T18:32:34.427Z,99762.88
2022-11-14T18:35:20.408Z,99753.38
2022-11-14T18:38:06.773Z,99757.81
2022-11-14T18:40:57.396Z,99747.28
2022-11-14T18:43:45.464Z,99757.81
2022-11-14T18:46:37.109Z,99762.44
2022-11-14T18:49:28.402Z,99754.75
2022-11-14T18:52:17.523Z,99760.44
2022-11-14T18:55:05.036Z,99759.72
2022-11-14T18:57:51.837Z,99761.06
2022-11-14T19:00:38.274Z,99762.63
2022-11-14T19:03:24.899Z,99759.44
2022-11-14T19:06:13.416Z,99760.34
2022-11-14T19:09:00.193Z,99763.19
2022-11-14T19:12:04.971Z,99750.31
2022-11-14T19:14:53.077Z,99755.66
2022-11-14T19:17:40.854Z,99751.63
2022-11-14T19:20:27.512Z,99750.44
2022-11-14T19:23:15.535Z,99754.91
2022-11-14T19:26:02.368Z,99754.09
2022-11-14T19:28:49.264Z,99758.72
2022-11-14T19:31:35.893Z,99760.38
2022-11-14T19:34:22.255Z,99768.56
2022-11-14T19:37:08.657Z,99764.16
2022-11-14T19:39:56.629Z,99766.19
2022-11-14T19:42:42.781Z,99766.28
2022-11-14T19:45:29.172Z,99767.09
2022-11-14T19:48:15.837Z,99769.25
2022-11-14T19:51:02.554Z,99775.03
2022-11-14T19:53:50.307Z,99774.56
2022-11-14T19:56:39.985Z,99769.09
2022-11-14T19:59:27.878Z,99769.69
2022-11-14T20:02:17.399Z,99770.03
2022-11-14T20:05:03.540Z,99776.06
2022-11-14T20:07:58.965Z,99773.84
2022-11-14T20:10:55.001Z,99773.13
2022-11-14T20:13:44.041Z,99770.63
2022-11-14T20:16:31.661Z,99770.50
2022-11-14T20:19:18.487Z,99762.44
2022-11-14T20:22:06.524Z,99766.56
2022-11-14T20:24:53.277Z,99764.78
2022-11-14T20:27:39.946Z,99764.69
2022-11-14T20:30:27.875Z,99761.72
2022-11-14T20:33:14.409Z,99759.25
2022-11-14T20:36:02.865Z,99763.75
2022-11-14T20:38:49.592Z,99759.53
2022-11-14T20:41:36.150Z,99753.09
2022-11-14T20:44:22.671Z,99760.38
2022-11-14T20:47:11.342Z,99749.50
2022-11-14T20:49:57.714Z,99754.25
2022-11-14T20:52:44.161Z,99759.56
2022-11-14T20:55:30.316Z,99763.22
2022-11-14T20:58:20.614Z,99758.31
2022-11-14T21:01:07.461Z,99760.19
2022-11-14T21:03:55.706Z,99761.41
2022-11-14T21:06:43.094Z,99761.19
2022-11-14T21:09:29.549Z,99758.69
2022-11-14T21:12:16.058Z,99761.53
2022-11-14T21:15:02.535Z,99760.75
2022-11-14T21:17:48.720Z,99767.50
2022-11-14T21:20:36.564Z,99779.69
2022-11-14T21:23:23.156Z,99777.38
2022-11-14T21:26:10.447Z,99771.25
2022-11-14T21:28:58.612Z,99774.06
2022-11-14T21:31:47.783Z,99769.34
2022-11-14T21:34:35.071Z,99771.50
2022-11-14T21:37:23.940Z,99776.69
2022-11-14T21:40:11.389Z,99770.66
2022-11-14T21:42:57.944Z,99767.00
2022-11-14T21:45:45.849Z,99769.38
2022-11-14T21:48:35.204Z,99760.13
2022-11-14T21:51:26.091Z,99767.22
2022-11-14T21:54:16.573Z,99760.09
2022-11-14T21:57:09.627Z,99769.50
2022-11-14T21:59:56.468Z,99761.06
2022-11-14T22:03:02.582Z,99760.19
2022-11-14T22:05:49.100Z,99763.63
2022-11-14T22:08:35.825Z,99756.66
2022-11-14T22:11:24.410Z,99762.47
2022-11-14T22:14:14.116Z,99765.78
2022-11-14T22:17:01.486Z,99767.91
2022-11-14T22:19:48.035Z,99766.88
2022-11-14T22:22:34.566Z,99768.28
2022-11-14T22:25:21.482Z,99758.00
2022-11-14T22:28:11.227Z,99772.53
2022-11-14T22:31:05.451Z,99769.84
2022-11-14T22:33:52.933Z,99773.97
2022-11-14T22:36:39.835Z,99772.06
2022-11-14T22:39:26.764Z,99772.44
2022-11-14T23:02:46.505Z,99781.34
2022-11-14T23:08:29.005Z,99781.28
2022-11-14T23:11:16.993Z,99773.34
2022-11-14T23:14:03.180Z,99776.91
2022-11-14T23:16:49.799Z,99780.34
2022-11-14T23:19:37.309Z,99781.16
2022-11-14T23:22:23.920Z,99783.47
2022-11-14T23:25:10.333Z,99774.25
2022-11-14T23:27:56.370Z,99771.75
2022-11-14T23:30:42.978Z,99773.56
2022-11-14T23:33:30.557Z,99768.00
2022-11-14T23:36:18.765Z,99756.84
2022-11-14T23:39:05.475Z,99756.00
2022-11-14T23:41:52.187Z,99756.34
2022-11-14T23:44:39.316Z,99756.41
2022-11-14T23:47:26.035Z,99753.63
2022-11-14T23:50:12.274Z,99757.91
2022-11-14T23:53:00.417Z,99747.78
2022-11-14T23:55:52.023Z,99745.06
2022-11-14T23:58:39.128Z,99747.09
